Time;durP1;ratioP1;P1;durP2;ratioP2;P2;SDS_P1;SDS_P2;PMS_P1;PMS_P2;Temp;Humidity;BMP_temperature;BMP_pressure;BME280_temperature;BME280_humidity;BME280_pressure;Samples;Min_cycle;Max_cycle;Signal;HPM_P1;HPM_P2
2022/09/06 00:00:11;;;;;;;7.97;3.90;;;;;;;;;;4945880;28;20038;-86
2022/09/06 00:02:38;;;;;;;12.18;4.40;;;;;;;;;;4952059;28;20030;-86
2022/09/06 00:05:04;;;;;;;9.98;4.47;;;;;;;;;;4950544;28;20031;-86
2022/09/06 00:07:30;;;;;;;7.03;4.65;;;;;;;;;;4961425;28;20111;-86
2022/09/06 00:09:56;;;;;;;11.98;5.80;;;;;;;;;;4944780;28;20058;-86
2022/09/06 00:12:23;;;;;;;9.32;4.70;;;;;;;;;;4947849;28;21294;-87
2022/09/06 00:14:49;;;;;;;8.80;4.65;;;;;;;;;;4957089;28;20069;-86
2022/09/06 00:17:15;;;;;;;9.88;4.50;;;;;;;;;;4955555;28;20066;-86
2022/09/06 00:19:41;;;;;;;13.50;5.10;;;;;;;;;;4954334;28;20500;-86
2022/09/06 00:22:08;;;;;;;9.02;4.07;;;;;;;;;;4960149;28;20725;-86
2022/09/06 00:24:36;;;;;;;9.55;4.13;;;;;;;;;;4955064;28;20023;-86
2022/09/06 00:27:02;;;;;;;11.60;4.40;;;;;;;;;;4945026;28;20030;-85
2022/09/06 00:29:28;;;;;;;12.80;5.00;;;;;;;;;;4941244;28;20042;-87
2022/09/06 00:31:54;;;;;;;5.95;4.25;;;;;;;;;;4944132;28;20425;-85
2022/09/06 00:34:20;;;;;;;12.52;4.57;;;;;;;;;;4949717;28;20093;-86
2022/09/06 00:36:46;;;;;;;9.38;5.00;;;;;;;;;;4941999;28;20045;-85
2022/09/06 00:39:12;;;;;;;6.43;4.85;;;;;;;;;;4943330;28;20061;-86
2022/09/06 00:41:38;;;;;;;19.15;5.25;;;;;;;;;;4945662;28;20385;-87
2022/09/06 00:44:04;;;;;;;9.93;4.65;;;;;;;;;;4957186;28;20029;-86
2022/09/06 00:46:31;;;;;;;8.50;5.10;;;;;;;;;;4953536;28;20064;-86
2022/09/06 00:49:02;;;;;;;5.88;4.40;;;;;;;;;;4947388;28;20105;-86
2022/09/06 00:51:30;;;;;;;5.97;4.57;;;;;;;;;;4961388;28;20030;-86
2022/09/06 00:53:57;;;;;;;9.10;4.93;;;;;;;;;;4957789;28;20540;-86
2022/09/06 00:56:23;;;;;;;8.38;5.00;;;;;;;;;;4957880;28;20058;-87
2022/09/06 00:58:49;;;;;;;12.20;4.93;;;;;;;;;;4958711;28;20433;-86
2022/09/06 01:01:15;;;;;;;8.90;4.53;;;;;;;;;;4943940;28;20485;-85
2022/09/06 01:03:42;;;;;;;9.00;4.43;;;;;;;;;;4940119;28;20153;-86
2022/09/06 01:06:23;;;;;;;8.40;4.72;;;;;;;;;;4971439;28;20019;-86
2022/09/06 01:08:49;;;;;;;7.60;4.95;;;;;;;;;;4957008;28;20125;-86
2022/09/06 01:11:18;;;;;;;7.20;4.47;;;;;;;;;;4960734;28;20105;-86
2022/09/06 01:13:44;;;;;;;8.40;4.85;;;;;;;;;;4962219;28;20078;-85
2022/09/06 01:16:19;;;;;;;8.57;5.03;;;;;;;;;;4955773;28;20042;-86
2022/09/06 01:19:04;;;;;;;7.88;4.57;;;;;;;;;;4954648;28;20037;-86
2022/09/06 01:21:42;;;;;;;13.75;5.03;;;;;;;;;;4958823;28;20038;-86
2022/09/06 01:24:17;;;;;;;6.63;4.35;;;;;;;;;;4960621;28;20035;-86
2022/09/06 01:26:59;;;;;;;10.75;5.13;;;;;;;;;;4955153;28;20106;-85
2022/09/06 01:29:28;;;;;;;12.02;5.30;;;;;;;;;;4955497;28;20366;-87
2022/09/06 01:32:03;;;;;;;11.82;5.82;;;;;;;;;;4962651;28;20500;-86
2022/09/06 01:34:37;;;;;;;16.30;4.90;;;;;;;;;;4964743;28;21260;-86
2022/09/06 01:37:07;;;;;;;6.57;4.60;;;;;;;;;;4951206;28;20035;-87
2022/09/06 01:39:34;;;;;;;8.15;4.85;;;;;;;;;;4952170;28;20786;-88
2022/09/06 01:42:04;;;;;;;9.45;4.75;;;;;;;;;;4947768;28;20129;-87
2022/09/06 01:44:31;;;;;;;10.95;5.45;;;;;;;;;;4947576;28;20027;-86
2022/09/06 01:47:15;;;;;;;8.23;5.07;;;;;;;;;;4950946;28;21724;-87
2022/09/06 01:49:54;;;;;;;7.03;4.72;;;;;;;;;;4958080;28;20621;-87
2022/09/06 01:52:25;;;;;;;8.32;5.57;;;;;;;;;;4959519;28;20034;-87
2022/09/06 01:55:02;;;;;;;8.25;5.45;;;;;;;;;;4973899;28;20077;-88
2022/09/06 01:57:46;;;;;;;14.63;4.95;;;;;;;;;;4974920;28;20121;-86
2022/09/06 02:00:14;;;;;;;14.10;4.70;;;;;;;;;;4957354;28;20042;-88
2022/09/06 02:02:46;;;;;;;12.45;5.78;;;;;;;;;;4960948;28;20398;-86
2022/09/06 02:05:25;;;;;;;13.57;5.35;;;;;;;;;;4957470;28;20026;-85
2022/09/06 02:07:54;;;;;;;9.70;5.20;;;;;;;;;;4970803;28;20118;-86
2022/09/06 02:10:25;;;;;;;12.25;5.70;;;;;;;;;;4962455;28;20043;-87
2022/09/06 02:12:53;;;;;;;7.75;4.50;;;;;;;;;;4972337;28;20391;-86
2022/09/06 02:15:19;;;;;;;5.80;4.50;;;;;;;;;;4962094;28;20026;-86
2022/09/06 02:17:50;;;;;;;7.97;4.72;;;;;;;;;;4974654;28;20477;-87
2022/09/06 02:20:18;;;;;;;6.97;4.95;;;;;;;;;;4959229;28;20402;-87
2022/09/06 02:22:45;;;;;;;11.85;5.15;;;;;;;;;;4957932;28;20031;-86
2022/09/06 02:25:13;;;;;;;8.82;5.18;;;;;;;;;;4959736;28;20052;-85
2022/09/06 02:27:39;;;;;;;10.68;5.40;;;;;;;;;;4956652;28;20046;-85
2022/09/06 02:30:05;;;;;;;6.75;4.95;;;;;;;;;;4956851;28;20050;-85
2022/09/06 02:32:35;;;;;;;6.13;4.65;;;;;;;;;;4948572;28;20406;-86
2022/09/06 02:35:12;;;;;;;6.80;4.80;;;;;;;;;;4956647;28;20065;-85
2022/09/06 02:37:38;;;;;;;7.32;5.35;;;;;;;;;;4959306;28;20026;-86
2022/09/06 02:40:04;;;;;;;11.20;5.40;;;;;;;;;;4959403;28;20038;-86
2022/09/06 02:42:30;;;;;;;6.90;4.68;;;;;;;;;;4961565;28;20936;-85
2022/09/06 02:44:56;;;;;;;9.15;5.10;;;;;;;;;;4942712;28;20039;-86
2022/09/06 02:47:22;;;;;;;8.55;4.97;;;;;;;;;;4946332;28;20034;-86
2022/09/06 02:49:49;;;;;;;10.02;5.13;;;;;;;;;;4952190;28;20224;-85
2022/09/06 02:52:16;;;;;;;10.32;5.32;;;;;;;;;;4972220;28;20031;-86
2022/09/06 02:54:42;;;;;;;7.85;5.53;;;;;;;;;;4951779;28;20030;-84
2022/09/06 02:57:08;;;;;;;13.27;5.50;;;;;;;;;;4958004;28;20038;-86
2022/09/06 02:59:37;;;;;;;8.88;5.32;;;;;;;;;;4957746;28;20030;-87
2022/09/06 03:02:03;;;;;;;9.20;5.00;;;;;;;;;;4962165;28;20484;-86
2022/09/06 03:04:31;;;;;;;10.23;5.45;;;;;;;;;;4958515;28;20105;-86
2022/09/06 03:06:57;;;;;;;8.55;4.95;;;;;;;;;;4962092;28;20462;-87
2022/09/06 03:09:24;;;;;;;7.45;5.47;;;;;;;;;;4953158;28;20066;-87
2022/09/06 03:11:50;;;;;;;10.75;5.70;;;;;;;;;;4949687;28;20116;-86
2022/09/06 03:14:18;;;;;;;6.85;5.72;;;;;;;;;;4958125;28;20034;-86
2022/09/06 03:16:44;;;;;;;15.57;5.50;;;;;;;;;;4951559;28;20038;-86
2022/09/06 03:19:13;;;;;;;6.60;4.70;;;;;;;;;;4962988;28;20033;-88
2022/09/06 03:21:42;;;;;;;7.05;5.53;;;;;;;;;;4959503;28;20031;-86
2022/09/06 03:24:08;;;;;;;8.07;5.47;;;;;;;;;;4956641;28;21037;-88
2022/09/06 03:26:34;;;;;;;7.30;6.00;;;;;;;;;;4945339;28;20057;-86
2022/09/06 03:29:00;;;;;;;10.57;5.40;;;;;;;;;;4957696;28;20146;-87
2022/09/06 03:31:39;;;;;;;8.98;5.57;;;;;;;;;;4943420;28;20110;-87
2022/09/06 03:34:05;;;;;;;7.07;5.88;;;;;;;;;;4949497;28;20490;-86
2022/09/06 03:36:31;;;;;;;24.92;6.32;;;;;;;;;;4943686;28;20031;-86
2022/09/06 03:38:58;;;;;;;8.52;5.60;;;;;;;;;;4955084;28;20041;-85
2022/09/06 03:41:24;;;;;;;7.53;5.65;;;;;;;;;;4955480;28;20027;-87
2022/09/06 03:43:52;;;;;;;9.15;5.47;;;;;;;;;;4954105;28;20045;-86
2022/09/06 03:46:19;;;;;;;8.50;5.72;;;;;;;;;;4961821;28;20023;-87
2022/09/06 03:48:45;;;;;;;10.65;6.65;;;;;;;;;;4951729;28;20035;-85
2022/09/06 03:51:11;;;;;;;11.07;5.80;;;;;;;;;;4961270;28;20037;-86
2022/09/06 03:53:37;;;;;;;10.93;5.88;;;;;;;;;;4945317;28;20050;-88
2022/09/06 03:56:03;;;;;;;8.07;5.82;;;;;;;;;;4942071;28;20855;-86
2022/09/06 03:58:30;;;;;;;16.42;6.75;;;;;;;;;;4955791;28;20550;-86
2022/09/06 04:01:00;;;;;;;12.52;6.55;;;;;;;;;;4961351;28;20026;-85
2022/09/06 04:03:26;;;;;;;11.10;6.35;;;;;;;;;;4957351;28;20122;-86
2022/09/06 04:05:52;;;;;;;9.80;6.72;;;;;;;;;;4959515;28;20031;-86
2022/09/06 04:08:18;;;;;;;16.25;7.10;;;;;;;;;;4940578;28;20042;-86
2022/09/06 04:10:45;;;;;;;13.50;6.93;;;;;;;;;;4940923;28;20031;-85
2022/09/06 04:13:11;;;;;;;10.85;6.35;;;;;;;;;;4949380;28;20492;-86
2022/09/06 04:15:37;;;;;;;11.10;7.05;;;;;;;;;;4950470;28;20035;-87
2022/09/06 04:18:03;;;;;;;13.50;6.47;;;;;;;;;;4956063;28;21372;-86
2022/09/06 04:20:29;;;;;;;13.48;7.07;;;;;;;;;;4952923;28;20509;-87
2022/09/06 04:22:55;;;;;;;9.82;7.55;;;;;;;;;;4957041;28;20309;-86
2022/09/06 04:25:21;;;;;;;8.88;6.63;;;;;;;;;;4946209;28;20695;-87
2022/09/06 04:27:47;;;;;;;8.18;6.97;;;;;;;;;;4944675;28;20112;-86
2022/09/06 04:30:13;;;;;;;8.93;7.47;;;;;;;;;;4951856;28;20037;-86
2022/09/06 04:32:39;;;;;;;12.13;7.28;;;;;;;;;;4947770;28;20053;-87
2022/09/06 04:35:06;;;;;;;9.40;6.57;;;;;;;;;;4941346;28;20528;-86
2022/09/06 04:37:32;;;;;;;11.13;6.38;;;;;;;;;;4943054;28;20034;-86
2022/09/06 04:39:58;;;;;;;17.65;8.32;;;;;;;;;;4950993;28;20035;-85
2022/09/06 04:42:24;;;;;;;13.85;7.63;;;;;;;;;;4944812;28;20030;-86
2022/09/06 04:44:52;;;;;;;12.68;7.15;;;;;;;;;;4956361;28;20039;-86
2022/09/06 04:47:18;;;;;;;14.52;7.80;;;;;;;;;;4946759;28;20120;-86
2022/09/06 04:49:47;;;;;;;12.75;7.30;;;;;;;;;;4958565;28;20042;-86
2022/09/06 04:52:13;;;;;;;10.00;7.05;;;;;;;;;;4956130;28;20031;-86
2022/09/06 04:54:39;;;;;;;17.98;7.95;;;;;;;;;;4945333;28;20379;-86
2022/09/06 04:57:05;;;;;;;13.00;7.18;;;;;;;;;;4943248;28;20081;-85
2022/09/06 04:59:31;;;;;;;14.45;7.25;;;;;;;;;;4941181;28;20030;-86
2022/09/06 05:01:57;;;;;;;11.90;7.78;;;;;;;;;;4956246;28;20030;-87
2022/09/06 05:04:24;;;;;;;18.42;7.60;;;;;;;;;;4951497;28;20514;-87
2022/09/06 05:06:58;;;;;;;13.77;7.47;;;;;;;;;;4958730;28;20031;-86
2022/09/06 05:09:24;;;;;;;16.58;7.95;;;;;;;;;;4954871;28;20026;-86
2022/09/06 05:11:50;;;;;;;12.15;8.20;;;;;;;;;;4940086;28;20421;-87
2022/09/06 05:14:16;;;;;;;13.10;7.70;;;;;;;;;;4943950;28;20043;-87
2022/09/06 05:16:44;;;;;;;9.57;8.15;;;;;;;;;;4940329;28;20086;-86
2022/09/06 05:19:10;;;;;;;10.35;7.72;;;;;;;;;;4959605;28;20046;-87
2022/09/06 05:21:36;;;;;;;15.65;8.85;;;;;;;;;;4957883;28;20031;-86
2022/09/06 05:24:02;;;;;;;13.10;8.15;;;;;;;;;;4967007;28;20156;-87
2022/09/06 05:26:28;;;;;;;12.20;7.85;;;;;;;;;;4961586;28;20038;-86
2022/09/06 05:28:54;;;;;;;10.27;8.60;;;;;;;;;;4948836;28;20049;-86
2022/09/06 05:31:28;;;;;;;14.20;7.80;;;;;;;;;;4945460;28;20098;-85
2022/09/06 05:33:54;;;;;;;16.17;8.45;;;;;;;;;;4955848;28;20046;-87
2022/09/06 05:36:22;;;;;;;11.40;7.85;;;;;;;;;;4938262;28;20031;-88
2022/09/06 05:38:49;;;;;;;12.02;8.48;;;;;;;;;;4965917;28;20551;-87
2022/09/06 05:41:15;;;;;;;12.80;7.93;;;;;;;;;;4962473;28;20029;-88
2022/09/06 05:43:41;;;;;;;17.58;8.40;;;;;;;;;;4957240;28;20038;-86
2022/09/06 05:46:07;;;;;;;14.15;7.93;;;;;;;;;;4956800;28;20101;-86
2022/09/06 05:48:33;;;;;;;17.27;8.43;;;;;;;;;;4971677;28;20030;-85
2022/09/06 05:51:04;;;;;;;13.82;8.00;;;;;;;;;;4940782;28;20041;-85
2022/09/06 05:53:49;;;;;;;10.85;8.77;;;;;;;;;;4955689;28;20062;-87
2022/09/06 05:56:16;;;;;;;10.52;8.38;;;;;;;;;;4952306;28;20722;-86
2022/09/06 05:58:42;;;;;;;13.80;9.32;;;;;;;;;;4956437;28;20400;-86
2022/09/06 06:01:16;;;;;;;14.85;8.95;;;;;;;;;;4973838;28;20026;-85
2022/09/06 06:03:42;;;;;;;17.90;10.07;;;;;;;;;;4954490;28;20030;-85
2022/09/06 06:06:09;;;;;;;13.32;9.02;;;;;;;;;;4954223;28;20034;-85
2022/09/06 06:08:35;;;;;;;17.45;10.35;;;;;;;;;;4945050;28;20034;-85
2022/09/06 06:11:01;;;;;;;18.17;9.23;;;;;;;;;;4948627;28;20078;-85
2022/09/06 06:13:28;;;;;;;20.83;10.60;;;;;;;;;;4953916;28;20506;-85
2022/09/06 06:15:55;;;;;;;15.52;9.95;;;;;;;;;;4939555;28;20505;-85
2022/09/06 06:18:21;;;;;;;14.57;9.88;;;;;;;;;;4944707;28;20047;-85
2022/09/06 06:20:47;;;;;;;17.45;9.68;;;;;;;;;;4957334;28;20705;-85
2022/09/06 06:23:14;;;;;;;17.67;10.80;;;;;;;;;;4939794;28;20699;-85
2022/09/06 06:25:40;;;;;;;15.27;9.93;;;;;;;;;;4940969;28;20034;-85
2022/09/06 06:28:06;;;;;;;14.35;9.48;;;;;;;;;;4946056;28;20030;-84
2022/09/06 06:30:32;;;;;;;14.90;10.23;;;;;;;;;;4946768;28;20050;-85
2022/09/06 06:32:59;;;;;;;12.50;9.55;;;;;;;;;;4959679;28;20205;-85
2022/09/06 06:35:25;;;;;;;12.43;9.63;;;;;;;;;;4948272;28;20027;-85
2022/09/06 06:37:51;;;;;;;11.40;9.43;;;;;;;;;;4966669;28;20057;-85
2022/09/06 06:40:17;;;;;;;16.55;10.73;;;;;;;;;;4952356;28;20066;-86
2022/09/06 06:42:43;;;;;;;12.77;10.20;;;;;;;;;;4948878;28;20057;-85
2022/09/06 06:45:09;;;;;;;18.95;10.15;;;;;;;;;;4946320;28;20913;-85
2022/09/06 06:47:35;;;;;;;21.92;10.65;;;;;;;;;;4965589;28;20130;-84
2022/09/06 06:50:01;;;;;;;17.67;10.50;;;;;;;;;;4947642;28;20129;-84
2022/09/06 06:52:27;;;;;;;14.05;10.13;;;;;;;;;;4950460;28;20598;-85
2022/09/06 06:54:53;;;;;;;13.90;10.18;;;;;;;;;;4963732;28;20038;-85
2022/09/06 06:57:20;;;;;;;14.45;10.50;;;;;;;;;;4957039;28;20050;-84
2022/09/06 06:59:46;;;;;;;14.85;10.25;;;;;;;;;;4948014;28;20092;-85
2022/09/06 07:02:14;;;;;;;15.15;10.90;;;;;;;;;;4945711;28;20712;-85
2022/09/06 07:04:40;;;;;;;21.58;10.75;;;;;;;;;;4965819;28;20390;-84
2022/09/06 07:07:07;;;;;;;20.73;9.85;;;;;;;;;;4949325;28;21091;-85
2022/09/06 07:09:33;;;;;;;14.02;10.60;;;;;;;;;;4948642;28;20073;-85
2022/09/06 07:11:59;;;;;;;20.13;11.73;;;;;;;;;;4945159;28;20070;-85
2022/09/06 07:14:25;;;;;;;19.05;10.82;;;;;;;;;;4945348;28;20089;-84
2022/09/06 07:16:57;;;;;;;22.05;10.55;;;;;;;;;;4955703;28;20026;-85
2022/09/06 07:19:23;;;;;;;16.88;10.95;;;;;;;;;;4975595;28;20046;-85
2022/09/06 07:21:49;;;;;;;14.85;10.85;;;;;;;;;;4959516;28;20031;-84
2022/09/06 07:24:15;;;;;;;15.05;9.77;;;;;;;;;;4943276;28;20031;-85
2022/09/06 07:26:41;;;;;;;22.20;11.70;;;;;;;;;;4944445;28;20061;-86
2022/09/06 07:29:08;;;;;;;27.75;11.13;;;;;;;;;;4961550;28;20037;-85
2022/09/06 07:31:34;;;;;;;16.90;11.70;;;;;;;;;;4957544;28;20049;-85
2022/09/06 07:34:01;;;;;;;17.52;10.10;;;;;;;;;;4952343;28;21061;-85
2022/09/06 07:36:27;;;;;;;16.45;10.30;;;;;;;;;;4943473;28;20550;-85
2022/09/06 07:38:53;;;;;;;18.17;11.70;;;;;;;;;;4950712;28;20038;-85
2022/09/06 07:41:21;;;;;;;16.60;11.15;;;;;;;;;;4948201;28;20090;-85
2022/09/06 07:43:47;;;;;;;14.90;10.07;;;;;;;;;;4975111;28;20413;-86
2022/09/06 07:46:15;;;;;;;16.60;10.85;;;;;;;;;;4944048;28;20514;-86
2022/09/06 07:48:42;;;;;;;14.85;10.35;;;;;;;;;;4960050;28;20037;-85
2022/09/06 07:51:12;;;;;;;14.98;9.32;;;;;;;;;;4964242;28;20036;-85
2022/09/06 07:53:40;;;;;;;24.95;11.10;;;;;;;;;;4961251;28;20035;-86
2022/09/06 07:56:07;;;;;;;31.10;10.60;;;;;;;;;;4960660;28;20050;-85
2022/09/06 07:58:33;;;;;;;15.13;10.15;;;;;;;;;;4955803;28;20046;-85
2022/09/06 08:01:19;;;;;;;17.35;9.93;;;;;;;;;;4944914;28;20061;-85
2022/09/06 08:03:46;;;;;;;13.00;9.82;;;;;;;;;;4956329;28;20035;-85
2022/09/06 08:06:13;;;;;;;12.25;10.00;;;;;;;;;;4954922;28;20478;-85
2022/09/06 08:08:39;;;;;;;15.27;9.70;;;;;;;;;;4960306;28;20367;-85
2022/09/06 08:11:06;;;;;;;19.63;9.77;;;;;;;;;;4949827;28;20038;-85
2022/09/06 08:13:33;;;;;;;16.48;9.90;;;;;;;;;;4958763;28;20042;-85
2022/09/06 08:16:00;;;;;;;14.57;10.00;;;;;;;;;;4972811;28;20398;-84
2022/09/06 08:18:26;;;;;;;15.18;9.70;;;;;;;;;;4962016;28;20050;-85
2022/09/06 08:20:52;;;;;;;14.63;9.68;;;;;;;;;;4956055;28;20501;-84
2022/09/06 08:23:18;;;;;;;13.55;8.68;;;;;;;;;;4948131;28;20038;-84
2022/09/06 08:25:44;;;;;;;12.32;8.88;;;;;;;;;;4943775;28;20054;-85
2022/09/06 08:28:10;;;;;;;11.75;8.82;;;;;;;;;;4958576;28;20685;-84
2022/09/06 08:30:36;;;;;;;13.93;9.60;;;;;;;;;;4946376;28;20089;-86
2022/09/06 08:33:02;;;;;;;13.88;9.50;;;;;;;;;;4941660;28;20626;-84
2022/09/06 08:35:28;;;;;;;12.40;9.40;;;;;;;;;;4949156;28;20034;-85
2022/09/06 08:37:57;;;;;;;13.55;8.65;;;;;;;;;;4960883;28;20066;-85
2022/09/06 08:40:24;;;;;;;10.15;8.93;;;;;;;;;;4956453;28;20041;-85
2022/09/06 08:42:51;;;;;;;13.57;9.32;;;;;;;;;;4955416;28;20030;-84
2022/09/06 08:45:22;;;;;;;11.15;8.32;;;;;;;;;;4954159;28;20588;-86
2022/09/06 08:47:49;;;;;;;14.48;9.15;;;;;;;;;;4955878;28;20454;-84
2022/09/06 08:50:25;;;;;;;14.35;9.70;;;;;;;;;;4973737;28;20498;-84
2022/09/06 08:52:57;;;;;;;13.68;9.80;;;;;;;;;;4951686;28;20537;-85
2022/09/06 08:55:42;;;;;;;18.40;8.80;;;;;;;;;;4955981;28;20042;-84
2022/09/06 08:58:08;;;;;;;11.45;9.18;;;;;;;;;;4954098;28;20030;-84
2022/09/06 09:00:35;;;;;;;13.15;8.25;;;;;;;;;;4968595;28;20037;-84
2022/09/06 09:03:11;;;;;;;11.55;9.05;;;;;;;;;;4947823;28;20088;-85
2022/09/06 09:05:39;;;;;;;11.95;8.38;;;;;;;;;;4972655;28;20114;-85
2022/09/06 09:08:24;;;;;;;12.52;8.73;;;;;;;;;;4956885;28;20027;-85
2022/09/06 09:10:58;;;;;;;9.98;8.10;;;;;;;;;;4980432;28;20034;-86
2022/09/06 09:13:30;;;;;;;12.93;8.88;;;;;;;;;;4973746;28;20089;-85
2022/09/06 09:15:56;;;;;;;14.95;10.05;;;;;;;;;;4957736;28;20110;-85
2022/09/06 09:18:24;;;;;;;10.50;8.60;;;;;;;;;;4949072;28;20093;-85
2022/09/06 09:20:51;;;;;;;10.45;9.18;;;;;;;;;;4964448;28;20429;-85
2022/09/06 09:23:17;;;;;;;14.25;8.75;;;;;;;;;;4971246;28;20105;-85
2022/09/06 09:25:45;;;;;;;15.80;9.23;;;;;;;;;;4941008;28;20071;-85
2022/09/06 09:28:14;;;;;;;16.90;9.45;;;;;;;;;;4946313;28;20067;-85
2022/09/06 09:30:51;;;;;;;16.50;8.73;;;;;;;;;;4949622;28;20524;-86
2022/09/06 09:33:34;;;;;;;15.45;9.23;;;;;;;;;;4951724;28;20051;-84
2022/09/06 09:36:10;;;;;;;17.08;9.63;;;;;;;;;;4958084;28;20474;-85
2022/09/06 09:38:42;;;;;;;14.65;11.63;;;;;;;;;;4955621;28;20553;-85
2022/09/06 09:41:08;;;;;;;13.70;10.05;;;;;;;;;;4953154;28;20029;-85
2022/09/06 09:43:36;;;;;;;15.68;10.00;;;;;;;;;;4973959;28;20512;-85
2022/09/06 09:46:16;;;;;;;16.15;10.93;;;;;;;;;;4951281;28;20062;-85
2022/09/06 09:49:00;;;;;;;15.90;9.77;;;;;;;;;;4955845;28;20556;-85
2022/09/06 09:51:26;;;;;;;16.50;10.52;;;;;;;;;;4959691;28;20559;-86
2022/09/06 09:53:53;;;;;;;14.73;10.07;;;;;;;;;;4945197;28;20042;-85
2022/09/06 09:56:26;;;;;;;17.42;10.18;;;;;;;;;;4972781;28;20089;-85
2022/09/06 09:58:53;;;;;;;15.07;10.25;;;;;;;;;;4959329;28;20038;-85
2022/09/06 10:01:22;;;;;;;14.15;10.68;;;;;;;;;;4950732;28;20026;-85
2022/09/06 10:03:50;;;;;;;11.55;9.38;;;;;;;;;;4955198;28;20031;-85
2022/09/06 10:06:24;;;;;;;19.40;9.48;;;;;;;;;;4957900;28;20166;-85
2022/09/06 10:08:50;;;;;;;13.13;9.52;;;;;;;;;;4963368;28;20089;-87
2022/09/06 10:11:36;;;;;;;14.55;10.77;;;;;;;;;;4969616;28;20027;-85
2022/09/06 10:14:13;;;;;;;15.73;9.43;;;;;;;;;;4958048;28;20548;-86
2022/09/06 10:16:43;;;;;;;13.23;10.18;;;;;;;;;;4976027;28;20073;-85
2022/09/06 10:19:42;;;;;;;14.30;9.52;;;;;;;;;;4958646;28;20026;-85
2022/09/06 10:22:08;;;;;;;17.13;9.65;;;;;;;;;;4938383;28;20034;-85
2022/09/06 10:24:48;;;;;;;18.27;10.40;;;;;;;;;;4972016;28;20659;-86
2022/09/06 10:27:18;;;;;;;14.05;9.15;;;;;;;;;;4979663;28;20056;-85
2022/09/06 10:29:53;;;;;;;12.93;9.15;;;;;;;;;;4959732;28;20114;-86
2022/09/06 10:32:40;;;;;;;11.83;9.13;;;;;;;;;;4957246;28;20119;-86
2022/09/06 10:35:09;;;;;;;12.50;8.90;;;;;;;;;;4966069;28;20183;-85
2022/09/06 10:37:39;;;;;;;15.07;9.02;;;;;;;;;;4956437;28;20061;-85
2022/09/06 10:40:07;;;;;;;11.23;8.10;;;;;;;;;;4961154;28;20035;-85
2022/09/06 10:42:47;;;;;;;13.75;8.07;;;;;;;;;;4959410;28;20525;-86
2022/09/06 10:45:13;;;;;;;13.70;8.55;;;;;;;;;;4978382;28;20035;-86
2022/09/06 10:47:55;;;;;;;13.98;9.10;;;;;;;;;;4974342;28;20034;-85
2022/09/06 10:50:22;;;;;;;10.73;9.13;;;;;;;;;;4972088;28;20053;-86
2022/09/06 10:52:51;;;;;;;14.95;9.45;;;;;;;;;;4960996;28;20027;-85
2022/09/06 10:55:18;;;;;;;9.40;8.43;;;;;;;;;;4974235;28;20052;-86
2022/09/06 10:57:53;;;;;;;10.35;8.35;;;;;;;;;;4961657;28;20490;-85
2022/09/06 11:00:19;;;;;;;13.10;8.75;;;;;;;;;;4969516;28;20014;-86
2022/09/06 11:02:51;;;;;;;12.32;9.73;;;;;;;;;;4950795;28;20397;-86
2022/09/06 11:05:23;;;;;;;11.05;8.85;;;;;;;;;;4957847;28;20034;-86
2022/09/06 11:07:53;;;;;;;17.88;8.93;;;;;;;;;;4962026;28;20035;-86
2022/09/06 11:10:27;;;;;;;13.23;9.25;;;;;;;;;;4972508;28;20026;-86
2022/09/06 11:13:02;;;;;;;12.40;8.23;;;;;;;;;;4966347;28;20062;-86
2022/09/06 11:15:28;;;;;;;;;;;;;;;;;;4957521;28;20386;-85
2022/09/06 11:18:07;;;;;;;13.52;8.30;;;;;;;;;;4954832;28;19914;-86
2022/09/06 11:20:57;;;;;;;15.68;8.60;;;;;;;;;;4953606;28;20022;-86
2022/09/06 11:23:32;;;;;;;13.77;8.10;;;;;;;;;;4948418;28;20050;-86
2022/09/06 11:26:05;;;;;;;15.68;8.55;;;;;;;;;;4954535;28;20018;-86
2022/09/06 11:28:51;;;;;;;14.05;8.10;;;;;;;;;;4953737;28;20041;-86
2022/09/06 11:31:40;;;;;;;12.30;8.23;;;;;;;;;;4954148;28;20027;-86
2022/09/06 11:34:06;;;;;;;12.27;7.35;;;;;;;;;;4955171;28;20074;-86
2022/09/06 11:36:44;;;;;;;11.20;7.63;;;;;;;;;;4958819;28;20034;-86
2022/09/06 11:39:10;;;;;;;12.00;7.25;;;;;;;;;;4956176;28;20528;-85
2022/09/06 11:41:41;;;;;;;7.22;6.45;;;;;;;;;;4950873;28;20043;-85
2022/09/06 11:44:08;;;;;;;9.30;5.80;;;;;;;;;;4958975;28;21326;-86
2022/09/06 11:46:34;;;;;;;7.57;5.82;;;;;;;;;;4947719;28;20706;-85
2022/09/06 11:49:15;;;;;;;8.63;5.72;;;;;;;;;;4957995;28;20440;-86
2022/09/06 11:51:42;;;;;;;15.63;5.93;;;;;;;;;;4974465;28;20041;-87
2022/09/06 11:54:18;;;;;;;6.95;5.30;;;;;;;;;;4954560;28;20039;-86
2022/09/06 11:56:50;;;;;;;9.55;6.18;;;;;;;;;;4956569;28;20597;-86
2022/09/06 11:59:20;;;;;;;10.73;6.55;;;;;;;;;;4957241;28;20046;-85
2022/09/06 12:01:55;;;;;;;9.50;6.43;;;;;;;;;;4955913;28;20026;-85
2022/09/06 12:04:22;;;;;;;11.52;6.35;;;;;;;;;;4956913;28;20053;-86
2022/09/06 12:07:27;;;;;;;11.18;6.00;;;;;;;;;;4954439;28;20027;-85
2022/09/06 12:09:53;;;;;;;8.55;5.80;;;;;;;;;;4922733;29;20510;-86
2022/09/06 12:12:37;;;;;;;7.85;5.90;;;;;;;;;;4903218;29;20064;-86
2022/09/06 12:15:24;;;;;;;6.45;5.30;;;;;;;;;;4954246;28;20045;-85
2022/09/06 12:17:50;;;;;;;6.13;5.38;;;;;;;;;;4932642;28;20571;-86
2022/09/06 12:20:34;;;;;;;6.00;5.40;;;;;;;;;;4970351;28;20042;-85
2022/09/06 12:23:01;;;;;;;7.45;4.95;;;;;;;;;;4960703;28;20026;-85
2022/09/06 12:25:33;;;;;;;11.02;5.75;;;;;;;;;;4953808;28;20030;-86
2022/09/06 12:28:03;;;;;;;6.18;5.45;;;;;;;;;;4959117;28;20025;-86
2022/09/06 12:30:37;;;;;;;10.88;5.50;;;;;;;;;;4956003;28;20364;-86
2022/09/06 12:33:22;;;;;;;9.43;5.85;;;;;;;;;;4956893;28;20458;-85
2022/09/06 12:35:48;;;;;;;10.15;5.80;;;;;;;;;;4960834;28;20027;-85
2022/09/06 12:38:15;;;;;;;8.98;5.65;;;;;;;;;;4941460;28;20039;-86
2022/09/06 12:40:46;;;;;;;7.60;6.07;;;;;;;;;;4960007;28;20035;-84
2022/09/06 12:43:14;;;;;;;10.35;5.65;;;;;;;;;;4955368;28;20030;-86
2022/09/06 12:45:44;;;;;;;10.32;5.82;;;;;;;;;;4969366;28;20101;-86
2022/09/06 12:48:11;;;;;;;15.55;6.22;;;;;;;;;;4962686;28;20916;-86
2022/09/06 12:50:38;;;;;;;9.73;6.20;;;;;;;;;;4958118;28;20636;-85
2022/09/06 12:53:16;;;;;;;15.98;5.70;;;;;;;;;;4956067;28;20068;-85
2022/09/06 12:55:42;;;;;;;18.23;6.75;;;;;;;;;;4956220;28;20061;-86
2022/09/06 12:58:09;;;;;;;8.57;5.47;;;;;;;;;;4944803;28;20046;-86
2022/09/06 13:00:50;;;;;;;5.82;4.72;;;;;;;;;;4955778;28;20497;-85
2022/09/06 13:03:24;;;;;;;7.78;5.10;;;;;;;;;;4962638;28;20483;-86
2022/09/06 13:05:51;;;;;;;10.82;5.70;;;;;;;;;;4955626;28;20031;-86
2022/09/06 13:08:22;;;;;;;9.32;6.32;;;;;;;;;;4955726;28;20038;-85
2022/09/06 13:10:48;;;;;;;6.43;5.80;;;;;;;;;;4962672;28;20114;-85
2022/09/06 13:13:20;;;;;;;6.43;5.80;;;;;;;;;;4958340;28;20700;-86
2022/09/06 13:15:46;;;;;;;8.02;6.15;;;;;;;;;;4971524;28;20035;-86
2022/09/06 13:18:31;;;;;;;9.20;5.72;;;;;;;;;;4953167;28;20422;-86
2022/09/06 13:21:02;;;;;;;8.13;5.60;;;;;;;;;;4959121;28;20030;-86
2022/09/06 13:23:29;;;;;;;15.93;5.72;;;;;;;;;;4964109;28;20042;-85
2022/09/06 13:25:56;;;;;;;6.97;6.03;;;;;;;;;;4948951;28;20039;-85
2022/09/06 13:28:24;;;;;;;12.55;5.78;;;;;;;;;;4965157;28;20066;-86
2022/09/06 13:31:02;;;;;;;13.25;5.95;;;;;;;;;;4961488;28;20122;-85
2022/09/06 13:33:28;;;;;;;11.07;6.40;;;;;;;;;;4957130;28;20058;-85
2022/09/06 13:36:16;;;;;;;8.00;4.70;;;;;;;;;;4961620;28;21141;-86
2022/09/06 13:38:42;;;;;;;7.47;5.55;;;;;;;;;;4966933;28;20461;-85
2022/09/06 13:41:24;;;;;;;10.13;4.85;;;;;;;;;;4949186;28;20045;-86
2022/09/06 13:43:57;;;;;;;9.57;5.18;;;;;;;;;;4957351;28;20039;-85
2022/09/06 13:46:23;;;;;;;7.07;4.57;;;;;;;;;;4961783;28;20418;-86
2022/09/06 13:48:49;;;;;;;12.18;4.80;;;;;;;;;;4960114;28;20038;-85
2022/09/06 13:51:17;;;;;;;7.68;4.30;;;;;;;;;;4953076;28;20033;-86
2022/09/06 13:53:43;;;;;;;5.80;3.63;;;;;;;;;;4975831;28;20030;-85
2022/09/06 13:56:10;;;;;;;5.80;3.80;;;;;;;;;;4948341;28;20533;-85
2022/09/06 13:58:37;;;;;;;5.95;3.60;;;;;;;;;;4950928;28;20478;-85
2022/09/06 14:01:07;;;;;;;8.77;4.18;;;;;;;;;;4965312;28;20551;-85
2022/09/06 14:03:33;;;;;;;5.25;3.92;;;;;;;;;;4960064;28;20031;-85
2022/09/06 14:06:00;;;;;;;7.68;3.67;;;;;;;;;;4959090;28;20033;-85
2022/09/06 14:08:27;;;;;;;5.00;3.80;;;;;;;;;;4959406;28;20031;-85
2022/09/06 14:10:53;;;;;;;6.78;3.92;;;;;;;;;;4962414;28;20074;-86
2022/09/06 14:13:19;;;;;;;10.20;3.45;;;;;;;;;;4951644;28;20031;-86
2022/09/06 14:15:46;;;;;;;3.65;3.17;;;;;;;;;;4956710;28;20053;-85
2022/09/06 14:18:13;;;;;;;7.57;2.83;;;;;;;;;;4946445;28;20030;-86
2022/09/06 14:20:39;;;;;;;4.28;3.10;;;;;;;;;;4956668;28;20034;-86
2022/09/06 14:23:06;;;;;;;5.10;3.03;;;;;;;;;;4961983;28;20726;-85
2022/09/06 14:25:34;;;;;;;7.50;3.00;;;;;;;;;;4961899;28;20594;-85
2022/09/06 14:28:01;;;;;;;5.10;3.40;;;;;;;;;;4959647;28;20030;-85
2022/09/06 14:30:27;;;;;;;10.23;3.40;;;;;;;;;;4967765;28;20031;-85
2022/09/06 14:32:53;;;;;;;6.85;3.63;;;;;;;;;;4954165;28;20117;-85
2022/09/06 14:35:19;;;;;;;4.03;3.47;;;;;;;;;;4942635;28;20719;-85
2022/09/06 14:37:45;;;;;;;11.52;2.72;;;;;;;;;;4946603;28;20495;-85
2022/09/06 14:40:11;;;;;;;3.65;3.00;;;;;;;;;;4951203;28;20745;-86
2022/09/06 14:42:37;;;;;;;5.78;3.13;;;;;;;;;;4954898;28;20024;-85
2022/09/06 14:45:03;;;;;;;4.97;3.13;;;;;;;;;;4944957;28;20556;-85